createdAt,value
2022-08-22T00:00:19.194Z,91.16
2022-08-22T00:03:09.413Z,90.70
2022-08-22T00:06:00.494Z,91.48
2022-08-22T00:09:00.090Z,91.04
2022-08-22T00:11:58.109Z,91.00
2022-08-22T00:14:43.503Z,91.53
2022-08-22T00:17:31.062Z,91.96
2022-08-22T00:20:26.402Z,92.24
2022-08-22T00:23:13.439Z,91.52
2022-08-22T00:25:43.224Z,91.59
2022-08-22T00:28:21.928Z,91.19
2022-08-22T00:31:02.980Z,91.01
2022-08-22T00:33:33.992Z,90.53
2022-08-22T00:36:10.844Z,90.51
2022-08-22T00:39:07.084Z,90.47
2022-08-22T00:42:08.294Z,89.92
2022-08-22T00:44:56.708Z,89.76
2022-08-22T00:47:38.620Z,90.05
2022-08-22T00:50:29.777Z,90.36
2022-08-22T00:53:14.410Z,90.41
2022-08-22T00:56:01.550Z,90.72
2022-08-22T00:58:36.165Z,90.75
2022-08-22T01:01:10.138Z,90.58
2022-08-22T01:03:48.590Z,90.91
2022-08-22T01:06:39.887Z,90.97
2022-08-22T01:09:27.691Z,91.08
2022-08-22T01:12:22.214Z,91.27
2022-08-22T01:14:58.010Z,91.79
2022-08-22T01:17:45.514Z,91.81
2022-08-22T01:20:33.490Z,91.54
2022-08-22T01:23:34.175Z,91.99
2022-08-22T01:26:37.992Z,92.50
2022-08-22T01:29:28.852Z,91.94
2022-08-22T01:32:26.523Z,91.86
2022-08-22T01:35:25.657Z,91.98
2022-08-22T01:38:14.089Z,92.50
2022-08-22T01:40:53.348Z,92.51
2022-08-22T01:43:59.655Z,92.25
2022-08-22T01:46:41.141Z,92.09
2022-08-22T01:49:08.179Z,92.12
2022-08-22T01:52:02.172Z,91.86
2022-08-22T01:54:53.669Z,91.72
2022-08-22T01:57:23.752Z,91.49
2022-08-22T01:59:55.766Z,91.36
2022-08-22T02:02:28.276Z,91.77
2022-08-22T02:05:10.380Z,91.48
2022-08-22T02:07:57.611Z,91.73
2022-08-22T02:10:43.015Z,91.79
2022-08-22T02:13:13.025Z,91.48
2022-08-22T02:15:40.006Z,92.00
2022-08-22T02:18:06.691Z,91.63
2022-08-22T02:20:48.553Z,91.83
2022-08-22T02:23:29.603Z,91.74
2022-08-22T02:26:02.323Z,91.73
2022-08-22T02:28:57.127Z,92.22
2022-08-22T02:31:33.643Z,92.15
2022-08-22T02:34:15.436Z,92.06
2022-08-22T02:37:14.421Z,92.35
2022-08-22T02:39:53.056Z,92.36
2022-08-22T02:42:46.696Z,92.93
2022-08-22T02:45:16.327Z,93.09
2022-08-22T02:48:06.920Z,93.21
2022-08-22T02:50:38.870Z,93.21
2022-08-22T02:53:13.785Z,92.78
2022-08-22T02:55:43.713Z,92.69
2022-08-22T02:58:21.151Z,92.29
2022-08-22T03:01:19.837Z,92.92
2022-08-22T03:03:48.320Z,92.81
2022-08-22T03:06:33.826Z,93.38
2022-08-22T03:09:15.460Z,93.63
2022-08-22T03:12:20.279Z,94.08
2022-08-22T03:15:10.183Z,94.24
2022-08-22T03:17:53.831Z,94.56
2022-08-22T03:20:48.362Z,94.66
2022-08-22T03:23:35.219Z,94.27
2022-08-22T03:26:36.897Z,93.70
2022-08-22T03:29:12.065Z,93.94
2022-08-22T03:32:15.568Z,93.50
2022-08-22T03:35:00.299Z,93.05
2022-08-22T03:37:40.829Z,92.64
2022-08-22T03:40:31.831Z,92.55
2022-08-22T03:43:27.186Z,92.74
2022-08-22T03:46:23.580Z,93.08
2022-08-22T03:49:05.256Z,93.49
2022-08-22T03:52:10.333Z,93.34
2022-08-22T03:54:37.329Z,93.86
2022-08-22T03:57:58.586Z,93.82
2022-08-22T04:00:53.105Z,94.33
2022-08-22T04:04:13.091Z,94.22
2022-08-22T04:06:58.518Z,94.24
2022-08-22T04:09:41.362Z,94.68
2022-08-22T04:12:23.597Z,95.03
2022-08-22T04:15:05.117Z,96.02
2022-08-22T04:17:47.056Z,96.00
2022-08-22T04:20:31.860Z,96.06
2022-08-22T04:23:20.382Z,96.35
2022-08-22T04:25:53.590Z,96.33
2022-08-22T04:28:32.578Z,96.08
2022-08-22T04:31:02.355Z,95.76
2022-08-22T04:34:01.435Z,96.06
2022-08-22T04:36:46.177Z,95.89
2022-08-22T04:39:45.774Z,95.37
2022-08-22T04:42:34.083Z,94.95
2022-08-22T04:45:18.397Z,94.45
2022-08-22T04:47:54.286Z,94.53
2022-08-22T04:50:49.233Z,93.83
2022-08-22T04:53:43.923Z,93.04
2022-08-22T04:57:01.750Z,92.33
2022-08-22T04:59:31.745Z,92.10
2022-08-22T05:02:06.554Z,91.08
2022-08-22T05:04:47.975Z,90.54
2022-08-22T05:07:22.171Z,90.47
2022-08-22T05:09:54.048Z,91.50
2022-08-22T05:12:29.231Z,91.60
2022-08-22T05:15:07.373Z,91.48
2022-08-22T05:17:38.755Z,90.93
2022-08-22T05:20:12.399Z,90.46
2022-08-22T05:22:47.374Z,90.18
2022-08-22T05:25:21.089Z,90.09
2022-08-22T05:27:56.814Z,90.03
2022-08-22T05:30:28.596Z,89.39
2022-08-22T05:33:04.589Z,88.72
2022-08-22T05:35:47.206Z,88.20
2022-08-22T05:38:19.716Z,89.03
2022-08-22T05:40:54.375Z,89.30
2022-08-22T05:43:23.928Z,89.89
2022-08-22T05:45:50.878Z,90.26
2022-08-22T05:48:27.079Z,90.36
2022-08-22T05:51:01.202Z,89.79
2022-08-22T05:53:41.699Z,89.19
2022-08-22T05:56:15.875Z,89.03
2022-08-22T05:58:56.811Z,88.30
2022-08-22T06:01:35.554Z,87.45
2022-08-22T06:04:12.115Z,87.18
2022-08-22T06:07:02.155Z,86.27
2022-08-22T06:09:46.928Z,85.74
2022-08-22T06:12:22.229Z,84.30
2022-08-22T06:15:11.600Z,82.85
2022-08-22T06:17:49.779Z,81.92
2022-08-22T06:20:26.280Z,81.69
2022-08-22T06:22:59.607Z,80.54
2022-08-22T06:25:33.911Z,79.63
2022-08-22T06:28:10.937Z,79.15
2022-08-22T06:30:39.701Z,80.53
2022-08-22T06:33:16.459Z,78.76
2022-08-22T06:36:11.389Z,79.78
2022-08-22T06:39:04.150Z,79.84
2022-08-22T06:41:36.295Z,79.85
2022-08-22T06:44:06.177Z,80.12
2022-08-22T06:46:40.807Z,79.38
2022-08-22T06:49:11.605Z,79.90
2022-08-22T06:51:39.346Z,79.32
2022-08-22T06:54:13.482Z,79.14
2022-08-22T06:56:43.925Z,78.87
2022-08-22T06:59:16.999Z,77.68
2022-08-22T07:01:51.950Z,77.53
2022-08-22T07:04:26.557Z,76.75
2022-08-22T07:06:56.062Z,76.16
2022-08-22T07:09:28.957Z,76.50
2022-08-22T07:12:02.902Z,76.22
2022-08-22T07:14:49.689Z,75.23
2022-08-22T07:17:24.470Z,74.85
2022-08-22T07:20:07.799Z,74.36
2022-08-22T07:22:37.532Z,74.19
2022-08-22T07:25:14.994Z,74.03
2022-08-22T07:27:48.914Z,73.90
2022-08-22T07:30:28.084Z,74.16
2022-08-22T07:33:26.693Z,74.13
2022-08-22T07:36:22.638Z,73.52
2022-08-22T07:39:21.570Z,74.27
2022-08-22T07:42:01.338Z,73.95
2022-08-22T07:45:27.700Z,73.66
2022-08-22T07:48:25.466Z,73.52
2022-08-22T07:50:58.541Z,73.40
2022-08-22T07:57:24.653Z,72.84
2022-08-22T08:00:01.355Z,72.74
2022-08-22T08:02:31.802Z,71.64
2022-08-22T08:05:05.079Z,70.89
2022-08-22T08:07:43.567Z,70.17
2022-08-22T08:10:16.454Z,69.86
2022-08-22T08:13:01.905Z,70.19
2022-08-22T08:18:51.042Z,70.48
2022-08-22T08:21:35.640Z,70.97
2022-08-22T08:24:05.977Z,71.51
2022-08-22T08:27:07.181Z,71.14
2022-08-22T08:29:46.409Z,70.59
2022-08-22T08:32:17.966Z,69.90
2022-08-22T08:34:45.063Z,68.89
2022-08-22T08:37:56.890Z,68.85
2022-08-22T08:40:31.837Z,68.38
2022-08-22T08:43:17.136Z,67.72
2022-08-22T08:46:14.571Z,66.61
2022-08-22T08:48:53.762Z,65.74
2022-08-22T08:51:45.422Z,65.27
2022-08-22T08:54:46.158Z,66.05
2022-08-22T08:57:42.067Z,65.87
2022-08-22T09:00:31.532Z,64.72
2022-08-22T09:04:02.468Z,64.87
2022-08-22T09:06:59.336Z,64.77
2022-08-22T09:09:54.263Z,63.64
2022-08-22T09:13:11.434Z,63.25
2022-08-22T09:16:08.291Z,63.32
2022-08-22T09:18:48.849Z,62.07
2022-08-22T09:21:15.949Z,61.39
2022-08-22T09:27:11.998Z,56.48
2022-08-22T09:29:54.851Z,57.45
2022-08-22T09:32:41.829Z,56.90
2022-08-22T09:35:31.482Z,55.81
2022-08-22T09:37:58.995Z,56.29
2022-08-22T09:40:39.315Z,56.02
2022-08-22T09:43:21.218Z,56.08
2022-08-22T09:46:08.069Z,54.51
2022-08-22T09:48:55.619Z,54.51
2022-08-22T09:51:38.980Z,53.91
2022-08-22T09:54:18.761Z,53.20
2022-08-22T09:57:01.326Z,52.60
2022-08-22T09:59:58.967Z,52.72
2022-08-22T10:02:32.666Z,50.51
2022-08-22T10:05:40.872Z,49.60
2022-08-22T10:08:49.615Z,50.09
2022-08-22T10:11:38.752Z,48.55
2022-08-22T10:14:16.195Z,49.27
2022-08-22T10:17:14.708Z,48.54
2022-08-22T10:20:06.233Z,48.76
2022-08-22T10:22:47.198Z,48.46
2022-08-22T10:25:47.692Z,48.13
2022-08-22T10:28:39.968Z,48.42
2022-08-22T10:31:59.420Z,48.08
2022-08-22T10:34:39.307Z,47.38
2022-08-22T10:37:11.615Z,47.45
2022-08-22T10:40:05.533Z,46.99
2022-08-22T10:43:03.121Z,48.26
2022-08-22T10:45:41.987Z,49.58
2022-08-22T10:48:12.078Z,48.38
2022-08-22T10:50:47.764Z,48.76
2022-08-22T10:53:43.652Z,48.25
2022-08-22T10:56:17.091Z,47.12
2022-08-22T10:58:55.062Z,46.78
2022-08-22T11:01:38.331Z,46.76
2022-08-22T11:04:28.968Z,46.70
2022-08-22T11:07:05.251Z,43.27
2022-08-22T11:10:00.890Z,45.21
2022-08-22T11:12:34.908Z,45.81
2022-08-22T11:15:46.501Z,46.77
2022-08-22T11:18:17.608Z,47.29
2022-08-22T11:21:08.461Z,47.27
2022-08-22T11:24:05.242Z,47.33
2022-08-22T11:26:46.525Z,47.27
2022-08-22T11:29:44.260Z,47.79
2022-08-22T11:32:46.059Z,47.65
2022-08-22T11:35:16.007Z,47.32
2022-08-22T11:37:56.314Z,48.07
2022-08-22T11:40:36.722Z,47.79
2022-08-22T11:43:33.305Z,48.64
2022-08-22T11:46:15.002Z,48.27
2022-08-22T11:48:47.062Z,48.43
2022-08-22T11:51:25.417Z,48.31
2022-08-22T11:54:22.188Z,48.87
2022-08-22T11:57:06.964Z,48.58
2022-08-22T11:59:59.025Z,49.38
2022-08-22T12:03:03.148Z,48.66
2022-08-22T12:05:35.714Z,48.06
2022-08-22T12:08:29.191Z,48.02
2022-08-22T12:11:14.250Z,48.09
2022-08-22T12:14:02.458Z,47.79
2022-08-22T12:17:01.041Z,48.46
2022-08-22T12:20:18.610Z,48.50
2022-08-22T12:22:54.477Z,47.80
2022-08-22T12:25:24.212Z,47.51
2022-08-22T12:28:28.667Z,47.03
2022-08-22T12:30:55.501Z,46.89
2022-08-22T12:33:41.190Z,46.85
2022-08-22T12:36:41.693Z,46.74
2022-08-22T12:39:44.680Z,47.53
2022-08-22T12:42:21.167Z,46.90
2022-08-22T12:44:57.830Z,46.99
2022-08-22T12:47:53.356Z,46.69
2022-08-22T12:50:38.852Z,46.29
2022-08-22T12:53:31.193Z,45.79
2022-08-22T12:56:32.865Z,45.64
2022-08-22T12:59:23.827Z,46.06
2022-08-22T13:01:54.764Z,44.76
2022-08-22T13:04:32.696Z,43.65
2022-08-22T13:07:05.544Z,43.36
2022-08-22T13:09:38.980Z,43.26
2022-08-22T13:12:29.165Z,44.30
2022-08-22T13:15:02.450Z,44.03
2022-08-22T13:17:32.853Z,45.05
2022-08-22T13:20:18.775Z,44.79
2022-08-22T13:22:46.768Z,44.82
2022-08-22T13:25:25.897Z,44.97
2022-08-22T13:28:09.922Z,44.78
2022-08-22T13:30:43.753Z,44.86
2022-08-22T13:33:22.839Z,44.91
2022-08-22T13:35:58.380Z,45.67
2022-08-22T13:38:30.248Z,45.88
2022-08-22T13:40:59.109Z,46.19
2022-08-22T13:43:32.059Z,46.99
2022-08-22T13:46:13.424Z,46.77
2022-08-22T13:49:03.998Z,47.33
2022-08-22T13:52:20.622Z,47.16
2022-08-22T13:55:03.628Z,48.44
2022-08-22T13:57:44.239Z,49.09
2022-08-22T14:00:25.412Z,49.16
2022-08-22T14:03:05.609Z,50.42
2022-08-22T14:05:54.507Z,50.33
2022-08-22T14:08:37.254Z,52.05
2022-08-22T14:11:18.022Z,51.08
2022-08-22T14:13:53.755Z,50.91
2022-08-22T14:16:25.235Z,50.77
2022-08-22T14:18:57.885Z,50.67
2022-08-22T14:21:27.482Z,50.97
2022-08-22T14:24:00.256Z,50.44
2022-08-22T14:26:33.216Z,50.37
2022-08-22T14:29:12.636Z,50.62
2022-08-22T14:31:40.150Z,51.28
2022-08-22T14:34:12.225Z,53.34
2022-08-22T14:36:58.963Z,53.39
2022-08-22T14:39:36.277Z,52.86
2022-08-22T14:42:11.172Z,51.98
2022-08-22T14:44:47.836Z,52.71
2022-08-22T14:47:55.492Z,53.10
2022-08-22T14:50:45.813Z,50.76
2022-08-22T14:53:36.011Z,50.43
2022-08-22T14:56:22.496Z,49.69
2022-08-22T14:59:05.004Z,49.63
2022-08-22T15:01:53.136Z,50.55
2022-08-22T15:04:37.207Z,50.73
2022-08-22T15:07:08.509Z,48.03
2022-08-22T15:09:53.074Z,47.11
2022-08-22T15:12:33.154Z,47.36
2022-08-22T15:15:03.875Z,49.74
2022-08-22T15:17:38.390Z,50.33
2022-08-22T15:20:28.701Z,50.63
2022-08-22T15:23:49.858Z,49.27
2022-08-22T15:26:38.408Z,44.84
2022-08-22T15:29:26.560Z,42.87
2022-08-22T15:31:58.999Z,42.08
2022-08-22T15:34:33.368Z,43.26
2022-08-22T15:37:18.181Z,41.87
2022-08-22T15:40:11.872Z,42.08
2022-08-22T15:42:51.144Z,41.41
2022-08-22T15:45:37.920Z,41.53
2022-08-22T15:48:09.413Z,39.69
2022-08-22T15:50:56.476Z,38.39
2022-08-22T15:53:33.548Z,37.40
2022-08-22T15:56:05.477Z,38.43
2022-08-22T15:58:37.383Z,38.42
2022-08-22T16:01:19.738Z,45.83
2022-08-22T16:04:00.507Z,51.17
2022-08-22T16:06:43.550Z,51.77
2022-08-22T16:09:32.257Z,52.50
2022-08-22T16:12:04.325Z,52.58
2022-08-22T16:14:33.877Z,52.62
2022-08-22T16:17:08.153Z,52.64
2022-08-22T16:19:36.221Z,53.11
2022-08-22T16:22:06.911Z,54.01
2022-08-22T16:24:55.153Z,53.86
2022-08-22T16:27:24.555Z,53.55
2022-08-22T16:30:01.884Z,52.31
2022-08-22T16:32:28.692Z,52.46
2022-08-22T16:34:55.474Z,53.44
2022-08-22T16:37:50.798Z,52.47
2022-08-22T16:40:22.534Z,52.90
2022-08-22T16:43:17.197Z,53.34
2022-08-22T16:45:45.733Z,54.19
2022-08-22T16:48:25.722Z,54.67
2022-08-22T16:51:11.036Z,56.50
2022-08-22T16:54:25.557Z,56.86
2022-08-22T16:57:24.671Z,57.77
2022-08-22T17:00:12.200Z,58.10
2022-08-22T17:03:03.332Z,58.76
2022-08-22T17:05:54.834Z,58.74
2022-08-22T17:08:36.542Z,59.43
2022-08-22T17:11:38.806Z,60.30
2022-08-22T17:14:25.378Z,60.25
2022-08-22T17:16:54.903Z,60.07
2022-08-22T17:20:06.352Z,60.73
2022-08-22T17:22:33.093Z,60.81
2022-08-22T17:24:59.826Z,60.81
2022-08-22T17:27:37.948Z,60.86
2022-08-22T17:30:16.306Z,60.52
2022-08-22T17:33:20.765Z,60.61
2022-08-22T17:36:26.596Z,60.28
2022-08-22T17:39:33.203Z,61.15
2022-08-22T17:42:26.976Z,60.46
2022-08-22T17:45:16.393Z,60.16
2022-08-22T17:47:55.605Z,61.20
2022-08-22T17:50:56.225Z,61.12
2022-08-22T17:53:47.709Z,61.56
2022-08-22T17:57:00.473Z,61.91
2022-08-22T17:59:57.890Z,61.71
2022-08-22T18:02:41.079Z,61.94
2022-08-22T18:05:44.981Z,62.12
2022-08-22T18:12:01.787Z,62.16
2022-08-22T18:14:44.936Z,61.56
2022-08-22T18:17:31.850Z,60.99
2022-08-22T18:20:09.977Z,61.01
2022-08-22T18:23:03.571Z,60.87
2022-08-22T18:25:42.269Z,60.45
2022-08-22T18:28:24.110Z,60.27
2022-08-22T18:31:02.713Z,60.46
2022-08-22T18:33:36.051Z,60.92
2022-08-22T18:36:36.808Z,61.97
2022-08-22T18:39:14.512Z,62.19
2022-08-22T18:42:03.753Z,63.58
2022-08-22T18:44:54.343Z,64.20
2022-08-22T18:47:36.806Z,64.23
2022-08-22T18:50:42.200Z,64.73
2022-08-22T18:53:39.422Z,65.08
2022-08-22T18:56:19.340Z,65.67
2022-08-22T18:59:05.335Z,65.55
2022-08-22T19:02:00.846Z,66.20
2022-08-22T19:04:30.892Z,66.49
2022-08-22T19:07:21.529Z,66.17
2022-08-22T19:12:40.960Z,65.68
2022-08-22T19:15:31.358Z,66.31
2022-08-22T19:18:16.679Z,67.13
2022-08-22T19:21:02.279Z,67.42
2022-08-22T19:23:40.498Z,67.40
2022-08-22T19:26:28.717Z,67.85
2022-08-22T19:28:57.971Z,68.16
2022-08-22T19:31:44.512Z,68.40
2022-08-22T19:34:22.165Z,68.38
2022-08-22T19:37:32.861Z,68.57
2022-08-22T19:40:11.432Z,67.69
2022-08-22T19:42:41.619Z,67.58
2022-08-22T19:45:29.403Z,68.58
2022-08-22T19:48:01.275Z,69.37
2022-08-22T19:50:38.627Z,69.12
2022-08-22T19:53:35.268Z,68.58
2022-08-22T19:56:27.754Z,69.55
2022-08-22T19:59:19.509Z,69.32
2022-08-22T20:02:00.958Z,68.61
2022-08-22T20:04:52.889Z,69.40
2022-08-22T20:07:42.280Z,69.42
2022-08-22T20:10:30.415Z,69.93
2022-08-22T20:13:01.265Z,69.62
2022-08-22T20:15:31.407Z,70.49
2022-08-22T20:21:00.103Z,70.97
2022-08-22T20:23:32.231Z,71.22
2022-08-22T20:25:59.726Z,71.06
2022-08-22T20:28:44.387Z,70.98
2022-08-22T20:31:19.596Z,71.65
2022-08-22T20:33:47.106Z,71.70
2022-08-22T20:36:27.848Z,72.61
2022-08-22T20:39:04.937Z,72.25
2022-08-22T20:41:45.672Z,71.14
2022-08-22T20:44:29.085Z,71.12
2022-08-22T20:47:04.598Z,71.01
2022-08-22T20:49:43.557Z,71.89
2022-08-22T20:52:22.498Z,72.63
2022-08-22T20:55:02.868Z,72.56
2022-08-22T20:57:30.795Z,72.42
2022-08-22T21:00:06.556Z,72.46
2022-08-22T21:02:42.074Z,72.02
2022-08-22T21:05:21.472Z,71.33
2022-08-22T21:08:10.570Z,71.37
2022-08-22T21:10:57.532Z,71.89
2022-08-22T21:13:33.954Z,72.19
2022-08-22T21:16:16.832Z,71.98
2022-08-22T21:18:48.785Z,72.16
2022-08-22T21:21:20.147Z,72.08
2022-08-22T21:23:50.291Z,71.42
2022-08-22T21:26:30.841Z,71.56
2022-08-22T21:29:06.333Z,71.37
2022-08-22T21:31:48.577Z,71.64
2022-08-22T21:34:21.231Z,72.03
2022-08-22T21:36:51.986Z,72.11
2022-08-22T21:39:26.779Z,72.92
2022-08-22T21:42:12.067Z,73.21
2022-08-22T21:44:41.867Z,73.19
2022-08-22T21:47:35.610Z,73.32
2022-08-22T21:50:20.503Z,73.89
2022-08-22T21:52:56.564Z,74.36
2022-08-22T21:55:26.895Z,74.50
2022-08-22T21:58:05.516Z,74.39
2022-08-22T22:00:51.689Z,74.80
2022-08-22T22:03:23.066Z,74.63
2022-08-22T22:05:52.959Z,75.19
2022-08-22T22:08:19.670Z,75.85
2022-08-22T22:10:49.063Z,75.12
2022-08-22T22:13:17.250Z,74.30
2022-08-22T22:15:46.615Z,75.13
2022-08-22T22:18:17.699Z,75.58
2022-08-22T22:20:45.182Z,75.85
2022-08-22T22:23:12.657Z,75.42
2022-08-22T22:25:45.021Z,76.20
2022-08-22T22:28:16.517Z,75.33
2022-08-22T22:30:45.119Z,75.28
2022-08-22T22:33:12.220Z,75.32
2022-08-22T22:35:40.779Z,75.15
2022-08-22T22:38:08.500Z,75.06
2022-08-22T22:40:35.762Z,74.82
2022-08-22T22:43:03.367Z,74.69
2022-08-22T22:45:30.201Z,75.32
2022-08-22T22:47:57.241Z,75.61
2022-08-22T22:50:24.194Z,76.13
2022-08-22T22:52:50.869Z,76.26
2022-08-22T22:55:24.535Z,76.15
2022-08-22T22:57:58.680Z,76.60
2022-08-22T23:00:27.225Z,76.42
2022-08-22T23:02:57.507Z,76.30
2022-08-22T23:05:24.222Z,76.29
2022-08-22T23:07:50.928Z,76.50
2022-08-22T23:10:21.777Z,76.33
2022-08-22T23:12:48.869Z,76.43
2022-08-22T23:15:15.754Z,77.05
2022-08-22T23:17:43.216Z,77.33
2022-08-22T23:20:10.387Z,77.74
2022-08-22T23:22:37.596Z,78.17
2022-08-22T23:25:05.456Z,78.63
2022-08-22T23:27:32.554Z,78.90
2022-08-22T23:29:59.443Z,78.92
2022-08-22T23:32:26.100Z,79.55
2022-08-22T23:34:53.551Z,79.10
2022-08-22T23:37:22.187Z,78.58
2022-08-22T23:39:49.665Z,78.38
2022-08-22T23:42:18.179Z,78.79
2022-08-22T23:44:45.932Z,78.67
2022-08-22T23:47:14.752Z,79.02
2022-08-22T23:49:45.013Z,79.64
2022-08-22T23:52:13.076Z,80.15
2022-08-22T23:54:40.001Z,80.20
2022-08-22T23:57:11.953Z,81.35
2022-08-22T23:59:44.575Z,81.19
